Time;durP1;ratioP1;P1;durP2;ratioP2;P2;SDS_P1;SDS_P2;PMS_P1;PMS_P2;Temp;Humidity;BMP_temperature;BMP_pressure;BME280_temperature;BME280_humidity;BME280_pressure;Samples;Min_cycle;Max_cycle;Signal;HPM_P1;HPM_P2
2023/06/11 00:01:29;;;;;;;5.90;4.30;;;;;;;21.34;59.21;101496.06;5073033;28;20040;-78
2023/06/11 00:03:56;;;;;;;4.35;3.67;;;;;;;21.18;59.69;101489.03;5073099;28;20038;-78
2023/06/11 00:06:23;;;;;;;5.65;3.38;;;;;;;21.20;60.49;101489.38;5069695;28;20497;-78
2023/06/11 00:08:53;;;;;;;6.07;3.90;;;;;;;20.97;61.49;101495.13;5064853;28;20032;-78
2023/06/11 00:11:20;;;;;;;4.15;3.22;;;;;;;21.01;61.34;101496.66;5070104;28;20035;-78
2023/06/11 00:13:45;;;;;;;4.18;3.47;;;;;;;21.08;61.01;101492.88;5063877;28;20127;-78
2023/06/11 00:16:12;;;;;;;5.35;3.50;;;;;;;21.07;61.43;101499.81;5047699;28;20035;-79
2023/06/11 00:18:40;;;;;;;6.88;3.45;;;;;;;21.08;60.93;101498.56;5061687;28;20114;-79
2023/06/11 00:21:06;;;;;;;5.78;3.58;;;;;;;21.01;61.43;101498.72;5068123;28;20137;-78
2023/06/11 00:23:34;;;;;;;5.40;3.90;;;;;;;21.09;61.65;101485.97;5075378;28;20048;-79
2023/06/11 00:25:59;;;;;;;6.35;4.05;;;;;;;20.81;62.45;101487.31;5069747;28;20076;-78
2023/06/11 00:28:25;;;;;;;4.95;3.45;;;;;;;20.84;61.53;101487.22;5076483;28;20036;-78
2023/06/11 00:30:50;;;;;;;6.55;3.72;;;;;;;20.92;61.70;101494.41;5098469;28;20038;-78
2023/06/11 00:33:15;;;;;;;5.60;3.40;;;;;;;20.94;61.43;101482.59;5099876;28;20023;-79
2023/06/11 00:35:41;;;;;;;5.97;3.92;;;;;;;20.81;61.85;101482.44;5094542;28;20036;-78
2023/06/11 00:38:06;;;;;;;7.85;4.78;;;;;;;20.84;62.25;101473.00;5094871;28;20046;-78
2023/06/11 00:40:31;;;;;;;6.82;4.32;;;;;;;20.85;61.78;101477.47;5087969;28;20128;-79
2023/06/11 00:42:57;;;;;;;4.72;4.00;;;;;;;20.90;61.84;101461.94;5094914;28;20096;-78
2023/06/11 00:45:24;;;;;;;6.88;3.90;;;;;;;20.86;61.31;101470.53;5079169;28;20024;-78
2023/06/11 00:47:49;;;;;;;5.10;3.80;;;;;;;20.90;61.32;101474.13;5090308;28;20517;-78
2023/06/11 00:50:15;;;;;;;8.88;5.20;;;;;;;20.88;61.34;101482.28;5084631;28;20024;-79
2023/06/11 00:52:41;;;;;;;5.68;4.38;;;;;;;20.78;61.90;101483.28;5071225;28;20044;-78
2023/06/11 00:55:07;;;;;;;5.75;4.50;;;;;;;20.60;62.33;101480.78;5073137;28;20028;-79
2023/06/11 00:57:35;;;;;;;9.80;5.65;;;;;;;20.63;63.14;101476.25;5065928;28;20536;-78
2023/06/11 01:00:01;;;;;;;6.30;4.50;;;;;;;20.75;62.14;101472.00;5086229;28;20033;-78
2023/06/11 01:02:33;;;;;;;8.02;5.00;;;;;;;20.71;62.18;101484.22;5091576;28;20020;-78
2023/06/11 01:05:02;;;;;;;8.13;5.13;;;;;;;20.52;62.54;101477.22;5089672;28;20122;-78
2023/06/11 01:07:34;;;;;;;10.20;5.25;;;;;;;20.56;61.73;101470.66;5092961;28;20602;-78
2023/06/11 01:09:59;;;;;;;8.93;6.18;;;;;;;20.51;63.51;101471.94;5072499;28;20051;-78
2023/06/11 01:12:25;;;;;;;10.75;7.25;;;;;;;20.52;63.15;101482.91;5090417;28;20050;-77
2023/06/11 01:14:50;;;;;;;9.80;6.97;;;;;;;20.32;63.72;101473.47;5089409;28;20023;-80
2023/06/11 01:17:25;;;;;;;17.50;7.30;;;;;;;20.43;63.96;101476.16;5091852;28;20032;-80
2023/06/11 01:20:14;;;;;;;9.73;6.93;;;;;;;20.23;64.44;101490.28;5093620;28;20439;-78
2023/06/11 01:22:49;;;;;;;8.15;7.30;;;;;;;20.17;65.16;101484.28;5073444;28;20487;-80
2023/06/11 01:25:37;;;;;;;10.13;6.00;;;;;;;20.07;64.95;101474.69;5071730;28;20284;-80
2023/06/11 01:28:09;;;;;;;9.48;6.75;;;;;;;19.94;67.11;101487.06;5073631;28;20063;-78
2023/06/11 01:30:40;;;;;;;11.18;7.20;;;;;;;19.96;66.50;101487.44;5068008;28;20198;-77
2023/06/11 01:33:08;;;;;;;9.13;6.88;;;;;;;19.98;68.06;101482.94;5066589;28;20048;-79
2023/06/11 01:35:34;;;;;;;8.57;7.68;;;;;;;20.09;66.16;101488.47;5071884;28;20048;-80
2023/06/11 01:38:02;;;;;;;10.63;7.43;;;;;;;20.31;64.59;101488.94;5065784;28;20041;-79
2023/06/11 01:40:28;;;;;;;15.60;6.97;;;;;;;20.45;64.42;101493.56;5075560;28;20039;-80
2023/06/11 01:42:57;;;;;;;9.98;8.05;;;;;;;20.20;67.08;101482.63;5076586;28;20028;-79
2023/06/11 01:45:26;;;;;;;10.77;8.43;;;;;;;20.15;65.89;101483.09;5085763;28;20115;-79
2023/06/11 01:47:52;;;;;;;10.23;8.38;;;;;;;19.86;69.72;101480.72;5078910;28;20058;-79
2023/06/11 01:50:18;;;;;;;10.85;8.10;;;;;;;20.12;67.76;101486.81;5070856;28;20027;-79
2023/06/11 01:52:44;;;;;;;10.45;7.72;;;;;;;20.27;66.29;101482.50;5074298;28;20028;-79
2023/06/11 01:55:10;;;;;;;9.85;8.00;;;;;;;20.31;66.82;101477.56;5068660;28;20512;-79
2023/06/11 01:57:36;;;;;;;10.63;7.88;;;;;;;20.25;66.15;101473.63;5077063;28;20032;-79
2023/06/11 02:00:07;;;;;;;11.68;9.10;;;;;;;19.85;70.07;101471.38;5074603;28;20409;-79
2023/06/11 02:02:33;;;;;;;10.27;8.05;;;;;;;20.06;66.09;101477.97;5070967;28;20038;-79
2023/06/11 02:04:58;;;;;;;11.48;8.20;;;;;;;20.20;66.34;101479.78;5070839;28;22146;-79
2023/06/11 02:07:24;;;;;;;9.85;7.82;;;;;;;20.25;66.33;101479.28;5069125;28;20024;-79
2023/06/11 02:09:49;;;;;;;10.10;8.98;;;;;;;19.85;70.37;101470.56;5071071;28;20031;-79
2023/06/11 02:12:15;;;;;;;9.63;8.73;;;;;;;19.84;67.92;101460.44;5070993;28;20036;-79
2023/06/11 02:14:40;;;;;;;12.93;9.45;;;;;;;19.91;70.07;101471.69;5071186;28;20309;-79
2023/06/11 02:17:05;;;;;;;10.88;8.80;;;;;;;19.81;70.97;101466.97;5077922;28;20019;-79
2023/06/11 02:19:31;;;;;;;12.15;9.82;;;;;;;19.99;68.76;101475.25;5071222;28;20023;-79
2023/06/11 02:21:56;;;;;;;11.82;9.80;;;;;;;19.74;70.95;101473.56;5077705;28;20036;-79
2023/06/11 02:24:23;;;;;;;9.10;7.65;;;;;;;20.03;67.33;101464.63;5070843;28;20139;-79
2023/06/11 02:26:48;;;;;;;9.73;8.73;;;;;;;20.22;66.53;101469.59;5069018;28;20036;-79
2023/06/11 02:29:16;;;;;;;9.95;8.57;;;;;;;20.14;67.09;101464.47;5082773;28;20527;-79
2023/06/11 02:31:41;;;;;;;9.38;7.97;;;;;;;20.16;66.73;101465.63;5077694;28;20343;-79
2023/06/11 02:34:06;;;;;;;10.00;8.27;;;;;;;20.10;66.57;101462.47;5076767;28;20036;-79
2023/06/11 02:36:32;;;;;;;11.48;9.02;;;;;;;20.13;67.50;101465.69;5072733;28;20048;-78
2023/06/11 02:38:57;;;;;;;11.20;10.00;;;;;;;20.02;69.42;101454.47;5075236;28;20028;-79
2023/06/11 02:41:22;;;;;;;11.95;9.77;;;;;;;19.95;69.74;101460.28;5078724;28;20081;-79
2023/06/11 02:43:48;;;;;;;11.20;9.35;;;;;;;19.95;67.99;101455.41;5077600;28;20081;-79
2023/06/11 02:46:13;;;;;;;11.60;9.20;;;;;;;20.02;67.86;101448.81;5065967;28;20563;-79
2023/06/11 02:48:38;;;;;;;10.13;8.52;;;;;;;19.90;71.23;101459.53;5072922;28;20059;-78
2023/06/11 02:51:04;;;;;;;9.65;8.63;;;;;;;19.73;70.37;101454.09;5070028;28;20085;-78
2023/06/11 02:53:29;;;;;;;10.80;9.70;;;;;;;19.81;69.74;101449.94;5077384;28;20105;-78
2023/06/11 02:55:54;;;;;;;11.77;8.45;;;;;;;19.90;68.59;101456.69;5070447;28;19930;-78
2023/06/11 02:58:20;;;;;;;11.82;8.57;;;;;;;19.91;68.79;101463.19;5064357;28;20388;-78
2023/06/11 03:00:45;;;;;;;15.00;9.35;;;;;;;19.68;71.70;101461.84;5065466;28;20043;-78
2023/06/11 03:03:11;;;;;;;10.52;9.35;;;;;;;19.82;69.92;101463.72;5071642;28;20476;-77
2023/06/11 03:05:36;;;;;;;11.15;8.85;;;;;;;19.58;71.51;101451.44;5071730;28;20131;-77
2023/06/11 03:08:01;;;;;;;10.45;8.70;;;;;;;19.78;70.47;101454.44;5073487;28;20032;-77
2023/06/11 03:10:27;;;;;;;9.25;8.35;;;;;;;19.85;68.32;101456.38;5062561;28;20028;-77
2023/06/11 03:12:54;;;;;;;11.25;9.77;;;;;;;19.68;70.97;101459.00;5065339;28;20702;-78
2023/06/11 03:15:19;;;;;;;11.23;9.30;;;;;;;19.78;69.70;101457.28;5068322;28;20082;-77
2023/06/11 03:17:45;;;;;;;9.75;8.70;;;;;;;19.77;71.13;101469.84;5075188;28;20109;-77
2023/06/11 03:20:11;;;;;;;12.93;9.38;;;;;;;19.72;71.40;101463.88;5069407;28;20054;-77
2023/06/11 03:22:36;;;;;;;11.68;9.40;;;;;;;19.69;72.91;101459.78;5086441;28;20529;-77
2023/06/11 03:25:02;;;;;;;11.05;8.80;;;;;;;19.46;73.29;101452.03;5088180;28;20042;-77
2023/06/11 03:27:27;;;;;;;11.45;8.88;;;;;;;19.58;71.39;101453.47;5094097;28;20028;-77
2023/06/11 03:29:52;;;;;;;11.48;9.88;;;;;;;19.63;71.59;101461.53;5091200;28;20027;-77
2023/06/11 03:32:18;;;;;;;11.38;9.13;;;;;;;19.60;71.66;101459.53;5096453;28;20035;-77
2023/06/11 03:34:43;;;;;;;10.57;9.52;;;;;;;19.46;75.84;101467.00;5080042;28;20027;-77
2023/06/11 03:37:08;;;;;;;10.63;9.52;;;;;;;19.54;73.08;101464.88;5077127;28;20623;-77
2023/06/11 03:39:34;;;;;;;10.88;9.02;;;;;;;19.46;71.94;101460.53;5100234;28;20047;-77
2023/06/11 03:41:59;;;;;;;10.18;8.35;;;;;;;19.51;72.77;101468.56;5093836;28;20126;-77
2023/06/11 03:44:25;;;;;;;9.73;8.80;;;;;;;19.58;74.48;101459.94;5093125;28;20020;-78
2023/06/11 03:46:50;;;;;;;14.43;8.65;;;;;;;19.62;72.26;101474.91;5092882;28;20043;-77
2023/06/11 03:49:15;;;;;;;10.75;8.68;;;;;;;19.52;71.75;101467.31;5093007;28;20115;-77
2023/06/11 03:51:41;;;;;;;9.32;8.10;;;;;;;19.58;71.98;101471.31;5097613;28;20035;-77
2023/06/11 03:54:06;;;;;;;10.68;8.68;;;;;;;19.66;71.52;101475.66;5097363;28;20122;-77
2023/06/11 03:56:32;;;;;;;10.25;8.27;;;;;;;19.72;71.13;101476.03;5092225;28;20043;-77
2023/06/11 03:58:57;;;;;;;9.48;7.75;;;;;;;19.76;71.70;101481.66;5092812;28;20032;-77
2023/06/11 04:01:23;;;;;;;10.63;9.35;;;;;;;19.65;72.02;101476.09;5095535;28;20379;-77
2023/06/11 04:03:49;;;;;;;10.73;8.43;;;;;;;19.49;72.21;101477.50;5097240;28;20038;-77
2023/06/11 04:06:16;;;;;;;10.48;8.80;;;;;;;19.76;70.28;101478.81;5095122;28;20032;-77
2023/06/11 04:08:41;;;;;;;10.25;8.48;;;;;;;19.75;71.15;101480.84;5091269;28;20043;-78
2023/06/11 04:11:08;;;;;;;10.25;8.95;;;;;;;19.65;73.19;101488.25;5091392;28;20585;-77
2023/06/11 04:13:34;;;;;;;12.77;8.45;;;;;;;19.55;72.75;101475.00;5080317;28;20035;-77
2023/06/11 04:15:59;;;;;;;9.50;8.52;;;;;;;;;;5059207;28;20367;-77
2023/06/11 04:18:24;;;;;;;10.13;7.72;;;;;;;19.73;70.66;101477.63;5079228;28;20122;-77
2023/06/11 04:20:50;;;;;;;11.10;8.40;;;;;;;19.64;72.79;101475.28;5092262;28;20575;-77
2023/06/11 04:23:15;;;;;;;9.98;8.65;;;;;;;19.78;70.56;101484.88;5095629;28;20063;-77
2023/06/11 04:25:41;;;;;;;9.75;7.97;;;;;;;19.74;70.96;101482.09;5099405;28;20024;-78
2023/06/11 04:28:08;;;;;;;9.52;7.97;;;;;;;19.69;71.17;101466.31;5095151;28;20399;-78
2023/06/11 04:30:33;;;;;;;9.13;8.18;;;;;;;19.63;70.08;101476.53;5084900;28;20507;-76
2023/06/11 04:33:03;;;;;;;10.00;8.85;;;;;;;19.74;71.19;101481.28;5090585;28;20156;-77
2023/06/11 04:35:28;;;;;;;10.27;8.80;;;;;;;19.68;72.79;101470.34;5093463;28;20031;-77
2023/06/11 04:37:55;;;;;;;10.90;8.98;;;;;;;19.75;72.72;101480.03;5096778;28;20047;-77
2023/06/11 04:40:23;;;;;;;10.52;8.15;;;;;;;19.84;69.56;101477.50;5095157;28;20392;-77
2023/06/11 04:42:49;;;;;;;10.70;8.57;;;;;;;19.77;71.98;101483.25;5098704;28;20102;-77
2023/06/11 04:45:18;;;;;;;9.88;8.57;;;;;;;19.73;73.07;101485.34;5091538;28;20114;-77
2023/06/11 04:47:45;;;;;;;12.80;9.48;;;;;;;19.59;74.04;101481.44;5100148;28;20051;-78
2023/06/11 04:50:11;;;;;;;11.25;9.02;;;;;;;19.65;72.14;101482.59;5091192;28;20032;-77
2023/06/11 04:52:42;;;;;;;8.80;7.93;;;;;;;19.83;72.13;101487.22;5076358;28;20031;-77
2023/06/11 04:55:09;;;;;;;9.15;7.82;;;;;;;19.55;73.87;101483.53;5075250;28;20023;-77
2023/06/11 04:57:36;;;;;;;10.23;8.48;;;;;;;19.74;73.50;101489.81;5093353;28;20542;-77
2023/06/11 05:00:07;;;;;;;10.50;8.63;;;;;;;19.74;73.49;101484.94;5092495;28;20107;-77
2023/06/11 05:02:33;;;;;;;12.93;9.38;;;;;;;19.50;78.94;101486.81;5091039;28;20545;-77
2023/06/11 05:04:58;;;;;;;11.20;8.05;;;;;;;19.56;78.33;101490.81;5088683;28;20033;-78
2023/06/11 05:07:23;;;;;;;12.77;8.88;;;;;;;19.50;76.37;101486.81;5091765;28;20410;-77
2023/06/11 05:09:49;;;;;;;14.43;10.13;;;;;;;19.54;77.72;101484.75;5091077;28;20454;-77
2023/06/11 05:12:14;;;;;;;9.05;7.97;;;;;;;19.56;78.95;101487.16;5090290;28;20480;-77
2023/06/11 05:14:40;;;;;;;9.43;8.52;;;;;;;19.65;75.89;101491.09;5092214;28;20040;-77
2023/06/11 05:17:05;;;;;;;12.27;9.40;;;;;;;19.66;78.19;101495.53;5078328;28;20030;-77
2023/06/11 05:19:30;;;;;;;11.18;9.68;;;;;;;19.72;76.76;101497.94;5077061;28;20032;-77
2023/06/11 05:21:56;;;;;;;13.15;8.32;;;;;;;19.76;74.79;101501.56;5086799;28;20040;-78
2023/06/11 05:24:28;;;;;;;11.25;9.30;;;;;;;19.80;78.47;101505.94;5087269;28;20030;-77
2023/06/11 05:26:55;;;;;;;14.57;9.23;;;;;;;19.84;78.90;101497.38;5091116;28;20387;-77
2023/06/11 05:29:21;;;;;;;13.35;9.43;;;;;;;19.94;77.26;101499.25;5088902;28;20039;-77
2023/06/11 05:31:46;;;;;;;10.32;8.45;;;;;;;20.02;76.83;101506.44;5087761;28;20438;-77
2023/06/11 05:34:11;;;;;;;8.32;7.47;;;;;;;20.09;72.72;101499.81;5074294;28;20024;-77
2023/06/11 05:36:37;;;;;;;12.43;9.40;;;;;;;20.12;78.40;101506.72;5092623;28;20129;-77
2023/06/11 05:39:02;;;;;;;10.93;8.95;;;;;;;20.16;76.75;101504.63;5089953;28;20024;-78
2023/06/11 05:41:27;;;;;;;9.65;7.85;;;;;;;20.23;75.22;101513.03;5089899;28;20039;-78
2023/06/11 05:43:53;;;;;;;12.50;8.70;;;;;;;20.30;75.51;101504.38;5093824;28;20523;-78
2023/06/11 05:46:18;;;;;;;11.38;8.73;;;;;;;20.33;75.27;101503.53;5097057;28;20061;-79
2023/06/11 05:48:45;;;;;;;11.13;9.00;;;;;;;20.36;77.74;101502.66;5072540;28;20027;-78
2023/06/11 05:51:11;;;;;;;10.43;9.43;;;;;;;20.45;77.62;101500.09;5078579;28;20139;-77
2023/06/11 05:53:36;;;;;;;13.18;9.98;;;;;;;20.51;76.94;101504.06;5097696;28;20535;-78
2023/06/11 05:56:04;;;;;;;11.65;8.75;;;;;;;20.62;76.12;101503.09;5094570;28;20371;-77
2023/06/11 05:58:33;;;;;;;10.73;8.35;;;;;;;20.69;73.60;101508.66;5078206;28;20028;-78
2023/06/11 06:01:03;;;;;;;13.85;9.50;;;;;;;20.75;75.92;101503.28;5091211;28;20039;-78
2023/06/11 06:03:33;;;;;;;10.35;9.27;;;;;;;20.83;75.34;101514.09;5098779;28;20040;-78
2023/06/11 06:06:00;;;;;;;10.30;9.00;;;;;;;20.89;73.85;101505.84;5076389;28;20272;-78
2023/06/11 06:08:29;;;;;;;11.73;9.07;;;;;;;20.97;74.89;101517.91;5098215;28;20028;-78
2023/06/11 06:10:55;;;;;;;10.43;9.15;;;;;;;21.02;74.44;101515.38;5074201;28;20036;-82
2023/06/11 06:13:24;;;;;;;10.57;9.30;;;;;;;21.09;73.56;101517.28;5088639;28;20828;-81
2023/06/11 06:15:50;;;;;;;12.48;9.73;;;;;;;21.11;73.29;101520.50;5085189;28;20047;-82
2023/06/11 06:18:15;;;;;;;10.93;9.07;;;;;;;21.20;72.96;101525.59;5088656;28;20106;-82
2023/06/11 06:20:41;;;;;;;12.35;9.88;;;;;;;21.28;72.33;101519.31;5083173;28;20050;-82
2023/06/11 06:23:07;;;;;;;13.18;9.63;;;;;;;21.32;72.69;101522.13;5090763;28;20105;-82
2023/06/11 06:25:33;;;;;;;13.20;9.10;;;;;;;21.46;73.10;101526.72;5073002;28;20024;-82
2023/06/11 06:27:59;;;;;;;12.02;9.00;;;;;;;21.55;71.72;101529.03;5089911;28;20498;-81
2023/06/11 06:30:24;;;;;;;14.98;9.70;;;;;;;21.67;71.10;101525.47;5090232;28;20036;-82
2023/06/11 06:32:49;;;;;;;13.20;9.27;;;;;;;21.68;72.04;101525.06;5099074;28;20028;-82
2023/06/11 06:35:15;;;;;;;11.43;9.85;;;;;;;21.85;71.02;101525.09;5072131;28;20032;-84
2023/06/11 06:37:40;;;;;;;12.02;9.93;;;;;;;21.82;71.37;101525.97;5076931;28;20028;-84
2023/06/11 06:40:06;;;;;;;12.27;9.13;;;;;;;21.96;70.40;101525.66;5099792;28;20417;-82
2023/06/11 06:42:32;;;;;;;13.05;9.75;;;;;;;21.98;69.95;101528.88;5080975;28;20024;-83
2023/06/11 06:44:57;;;;;;;9.02;8.13;;;;;;;22.13;69.94;101535.84;5094953;28;20087;-82
2023/06/11 06:47:22;;;;;;;11.70;9.48;;;;;;;22.21;69.75;101530.78;5077399;28;20532;-82
2023/06/11 06:49:48;;;;;;;9.98;8.93;;;;;;;22.31;69.48;101523.28;5091866;28;20036;-82
2023/06/11 06:52:13;;;;;;;10.43;9.02;;;;;;;22.37;68.85;101515.78;5093800;28;20020;-82
2023/06/11 06:54:39;;;;;;;10.82;9.73;;;;;;;22.41;68.95;101524.22;5084335;28;20034;-82
2023/06/11 06:57:07;;;;;;;11.02;9.38;;;;;;;22.53;68.45;101524.31;5093071;28;20842;-82
2023/06/11 06:59:33;;;;;;;12.13;9.80;;;;;;;22.63;68.65;101527.38;5075915;28;20376;-82
2023/06/11 07:01:58;;;;;;;10.85;9.57;;;;;;;22.64;67.64;101524.09;5092203;28;21127;-82
2023/06/11 07:04:24;;;;;;;12.20;9.05;;;;;;;22.74;67.58;101528.69;5090409;28;20076;-82
2023/06/11 07:06:49;;;;;;;12.27;9.80;;;;;;;22.94;67.14;101530.66;5093394;28;20541;-82
2023/06/11 07:09:15;;;;;;;11.00;8.55;;;;;;;22.96;67.60;101525.28;5095089;28;20031;-82
2023/06/11 07:11:40;;;;;;;11.57;8.70;;;;;;;23.09;67.04;101537.59;5082546;28;20387;-82
2023/06/11 07:14:05;;;;;;;11.35;9.20;;;;;;;23.19;66.21;101535.72;5091664;28;20058;-82
2023/06/11 07:16:31;;;;;;;10.32;9.32;;;;;;;23.27;66.46;101537.09;5089753;28;20035;-82
2023/06/11 07:18:57;;;;;;;9.70;8.70;;;;;;;23.25;66.23;101531.03;5073816;28;20058;-82
2023/06/11 07:21:23;;;;;;;10.75;9.25;;;;;;;23.41;66.65;101541.59;5095008;28;20487;-82
2023/06/11 07:23:48;;;;;;;12.45;8.68;;;;;;;23.50;65.15;101543.81;5094711;28;20068;-82
2023/06/11 07:26:15;;;;;;;9.88;8.32;;;;;;;23.62;65.58;101540.19;5091129;28;20035;-82
2023/06/11 07:28:41;;;;;;;13.57;8.02;;;;;;;23.63;64.55;101553.22;5095123;28;20035;-82
2023/06/11 07:31:07;;;;;;;11.25;8.48;;;;;;;23.79;65.38;101549.50;5097928;28;20101;-83
2023/06/11 07:33:32;;;;;;;9.93;8.07;;;;;;;23.94;64.26;101549.88;5097694;28;20023;-82
2023/06/11 07:35:59;;;;;;;10.10;9.07;;;;;;;23.93;63.56;101551.16;5095098;28;20028;-87
2023/06/11 07:38:25;;;;;;;11.32;9.05;;;;;;;23.81;63.64;101546.22;5088384;28;20060;-85
2023/06/11 07:40:52;;;;;;;8.52;7.68;;;;;;;23.82;63.98;101550.66;5104387;28;20038;-85
2023/06/11 07:43:18;;;;;;;9.95;8.95;;;;;;;23.92;63.72;101546.69;5077901;28;20793;-86
2023/06/11 07:45:43;;;;;;;7.75;7.00;;;;;;;23.90;65.18;101549.97;5089774;28;20027;-85
2023/06/11 07:48:09;;;;;;;8.23;7.45;;;;;;;23.91;66.38;101553.66;5077985;28;20035;-86
2023/06/11 07:50:34;;;;;;;11.00;8.25;;;;;;;24.11;70.10;101559.97;5095484;28;20036;-85
2023/06/11 07:53:00;;;;;;;9.38;7.70;;;;;;;24.13;70.00;101550.94;5081652;28;20031;-85
2023/06/11 07:55:26;;;;;;;11.07;9.25;;;;;;;24.08;64.42;101552.31;5091953;28;20043;-84
2023/06/11 07:57:51;;;;;;;9.25;8.27;;;;;;;24.15;67.47;101557.78;5078951;28;20088;-85
2023/06/11 08:00:17;;;;;;;10.02;8.93;;;;;;;24.33;66.70;101548.66;5073984;28;20356;-85
2023/06/11 08:02:43;;;;;;;10.50;8.68;;;;;;;24.30;63.69;101546.69;5095728;28;20092;-85
2023/06/11 08:05:17;;;;;;;9.30;8.30;;;;;;;24.49;63.74;101562.06;5092588;28;20038;-84
2023/06/11 08:07:42;;;;;;;8.73;7.82;;;;;;;24.65;62.95;101548.88;5077738;28;20081;-85
2023/06/11 08:10:08;;;;;;;9.32;8.43;;;;;;;24.87;61.90;101541.16;5089126;28;20421;-85
2023/06/11 08:12:34;;;;;;;9.63;8.57;;;;;;;25.10;61.30;101553.47;5095469;28;20057;-85
2023/06/11 08:15:02;;;;;;;10.40;9.15;;;;;;;25.16;64.31;101551.63;5087187;28;20084;-88
2023/06/11 08:17:28;;;;;;;9.88;8.45;;;;;;;25.20;61.86;101552.31;5087998;28;20034;-84
2023/06/11 08:19:53;;;;;;;9.60;8.60;;;;;;;25.09;60.33;101551.88;5094790;28;20027;-86
2023/06/11 08:22:19;;;;;;;9.95;7.82;;;;;;;25.49;60.04;101545.56;5086536;28;20124;-86
2023/06/11 08:24:44;;;;;;;10.25;8.68;;;;;;;25.40;59.56;101554.06;5096039;28;20647;-86
2023/06/11 08:27:10;;;;;;;9.82;8.82;;;;;;;25.52;59.05;101539.66;5079590;28;20023;-85
2023/06/11 08:29:35;;;;;;;9.70;8.70;;;;;;;25.64;59.27;101554.41;5078553;28;20023;-86
2023/06/11 08:32:00;;;;;;;12.13;8.32;;;;;;;25.67;59.41;101551.38;5094426;28;20484;-84
2023/06/11 08:34:26;;;;;;;10.35;8.70;;;;;;;25.80;58.85;101547.66;5082973;28;20055;-86
2023/06/11 08:36:52;;;;;;;10.55;7.88;;;;;;;26.11;57.04;101551.34;5097701;28;20028;-86
2023/06/11 08:39:17;;;;;;;10.15;8.35;;;;;;;26.30;56.95;101554.31;5088775;28;20580;-85
2023/06/11 08:41:43;;;;;;;10.05;9.05;;;;;;;26.04;58.18;101551.66;5074284;28;20491;-85
2023/06/11 08:44:08;;;;;;;9.88;8.88;;;;;;;25.96;58.17;101541.72;5083654;28;20020;-85
2023/06/11 08:46:35;;;;;;;9.55;8.57;;;;;;;26.24;57.32;101550.47;5077473;28;20487;-85
2023/06/11 08:49:07;;;;;;;9.35;8.32;;;;;;;26.26;57.88;101545.03;5080203;28;20028;-85
2023/06/11 08:51:39;;;;;;;8.82;7.82;;;;;;;26.24;57.25;101547.59;5095827;28;20032;-87
2023/06/11 08:54:09;;;;;;;10.13;9.13;;;;;;;26.74;55.89;101551.28;5078793;28;20027;-86
2023/06/11 08:56:35;;;;;;;9.52;8.15;;;;;;;26.71;57.09;101543.59;5080349;28;20032;-87
2023/06/11 08:59:02;;;;;;;9.82;8.75;;;;;;;26.44;57.05;101542.25;5083069;28;20403;-86
2023/06/11 09:01:29;;;;;;;10.55;8.43;;;;;;;26.48;57.10;101533.47;5081564;28;20520;-86
2023/06/11 09:03:55;;;;;;;9.27;8.30;;;;;;;26.66;55.27;101544.25;5098448;28;20530;-86
2023/06/11 09:06:20;;;;;;;8.57;7.68;;;;;;;26.74;53.66;101528.31;5100267;28;20056;-86
2023/06/11 09:09:05;;;;;;;7.28;6.57;;;;;;;27.03;54.55;101544.28;5094122;28;20039;-86
2023/06/11 09:11:37;;;;;;;9.05;7.88;;;;;;;26.97;54.25;101541.28;5075174;28;20031;-86
2023/06/11 09:14:05;;;;;;;9.30;8.18;;;;;;;27.19;53.60;101529.63;5098453;28;20083;-86
2023/06/11 09:16:40;;;;;;;8.35;7.57;;;;;;;27.22;54.16;101539.34;5093322;28;20032;-86
2023/06/11 09:19:06;;;;;;;9.07;7.65;;;;;;;27.46;55.61;101543.22;5091940;28;20682;-82
2023/06/11 09:21:31;;;;;;;8.00;7.20;;;;;;;27.88;50.95;101539.66;5092050;28;20035;-81
2023/06/11 09:24:09;;;;;;;8.48;7.57;;;;;;;28.11;52.86;101540.22;5075426;28;20392;-79
2023/06/11 09:26:34;;;;;;;7.68;6.80;;;;;;;28.07;48.67;101528.88;5074856;28;20037;-80
2023/06/11 09:29:00;;;;;;;9.98;7.43;;;;;;;28.14;49.03;101530.59;5099980;28;20027;-80
2023/06/11 09:31:26;;;;;;;8.60;7.75;;;;;;;27.60;49.50;101536.00;5093716;28;20042;-80
2023/06/11 09:33:52;;;;;;;8.38;7.45;;;;;;;27.71;49.88;101542.06;5095471;28;20087;-80
2023/06/11 09:36:18;;;;;;;9.50;7.20;;;;;;;28.30;47.88;101535.97;5075676;28;20480;-79
2023/06/11 09:38:47;;;;;;;8.40;7.60;;;;;;;28.48;47.32;101537.97;5074178;28;20043;-80
2023/06/11 09:41:13;;;;;;;8.55;7.28;;;;;;;28.02;47.59;101541.06;5078384;28;20055;-80
2023/06/11 09:43:39;;;;;;;9.52;7.50;;;;;;;28.12;48.00;101544.69;5079541;28;20056;-80
2023/06/11 09:46:05;;;;;;;8.10;7.30;;;;;;;28.22;47.93;101542.56;5097768;28;20130;-80
2023/06/11 09:48:31;;;;;;;9.73;7.65;;;;;;;28.47;46.75;101541.34;5088888;28;20024;-80
2023/06/11 09:51:00;;;;;;;8.43;7.28;;;;;;;28.79;47.58;101537.63;5086332;28;20428;-80
2023/06/11 09:53:28;;;;;;;7.40;6.65;;;;;;;29.03;45.54;101538.91;5075330;28;20023;-80
2023/06/11 09:55:53;;;;;;;8.52;7.57;;;;;;;28.88;45.54;101538.84;5097759;28;20023;-79
2023/06/11 09:58:22;;;;;;;10.48;7.45;;;;;;;29.10;45.90;101547.22;5073396;28;20814;-80
2023/06/11 10:00:49;;;;;;;7.80;6.78;;;;;;;29.33;44.75;101548.47;5087454;28;20027;-80
2023/06/11 10:03:14;;;;;;;8.77;7.88;;;;;;;28.95;44.61;101538.50;5092780;28;20122;-80
2023/06/11 10:05:40;;;;;;;7.25;6.55;;;;;;;28.89;45.43;101529.72;5087072;28;20027;-80
2023/06/11 10:08:17;;;;;;;7.60;6.78;;;;;;;29.35;44.17;101535.16;5074571;28;20035;-79
2023/06/11 10:10:45;;;;;;;7.28;6.63;;;;;;;29.33;46.47;101534.84;5091847;28;20539;-79
2023/06/11 10:13:11;;;;;;;9.40;7.00;;;;;;;29.74;44.31;101535.09;5074410;28;20038;-80
2023/06/11 10:15:37;;;;;;;7.90;7.20;;;;;;;29.42;44.24;101527.41;5072253;28;20020;-79
2023/06/11 10:18:12;;;;;;;8.77;6.82;;;;;;;29.92;43.07;101536.22;5094062;28;20084;-80
2023/06/11 10:20:50;;;;;;;7.35;6.53;;;;;;;29.91;42.55;101534.59;5090302;28;20516;-80
2023/06/11 10:23:15;;;;;;;9.63;7.18;;;;;;;29.99;40.53;101544.44;5074418;28;20676;-80
2023/06/11 10:25:41;;;;;;;7.78;6.93;;;;;;;29.78;41.87;101529.13;5091957;28;20046;-80
2023/06/11 10:28:09;;;;;;;6.95;6.13;;;;;;;29.68;44.85;101542.81;5091948;28;20020;-80
2023/06/11 10:30:34;;;;;;;7.22;6.60;;;;;;;30.17;42.53;101532.69;5090676;28;20062;-80
2023/06/11 10:33:00;;;;;;;7.45;6.35;;;;;;;30.10;39.91;101535.97;5081716;28;20114;-79
2023/06/11 10:35:32;;;;;;;7.57;6.47;;;;;;;30.54;39.70;101537.97;5074541;28;20024;-79
2023/06/11 10:38:12;;;;;;;7.00;6.30;;;;;;;30.30;41.18;101531.59;5080795;28;20019;-79
2023/06/11 10:40:38;;;;;;;7.20;6.55;;;;;;;30.02;40.32;101540.56;5097119;28;20067;-79
2023/06/11 10:43:16;;;;;;;7.70;6.95;;;;;;;30.34;40.89;101535.88;5074482;28;20471;-78
2023/06/11 10:45:42;;;;;;;9.10;7.45;;;;;;;29.67;43.70;101538.34;5088952;28;20038;-79
2023/06/11 10:48:07;;;;;;;8.10;7.30;;;;;;;30.02;40.01;101537.66;5091789;28;20075;-79
2023/06/11 10:50:33;;;;;;;8.38;6.10;;;;;;;30.17;39.42;101543.44;5090316;28;20555;-78
2023/06/11 10:53:08;;;;;;;6.88;6.18;;;;;;;30.28;39.26;101542.81;5088479;28;20036;-78
2023/06/11 10:55:34;;;;;;;7.05;6.40;;;;;;;30.31;40.73;101541.84;5088543;28;20779;-79
2023/06/11 10:58:01;;;;;;;6.50;5.75;;;;;;;30.20;38.28;101537.44;5087072;28;20032;-80
2023/06/11 11:00:32;;;;;;;7.72;6.93;;;;;;;30.41;37.51;101525.97;5091523;28;20347;-79
2023/06/11 11:02:59;;;;;;;7.55;6.53;;;;;;;30.50;37.89;101537.41;5088887;28;20043;-80
2023/06/11 11:05:26;;;;;;;6.50;5.90;;;;;;;30.68;36.46;101542.13;5090627;28;20484;-79
2023/06/11 11:07:53;;;;;;;9.00;5.75;;;;;;;30.88;40.33;101540.56;5068987;28;20067;-80
2023/06/11 11:10:24;;;;;;;6.45;5.68;;;;;;;30.71;37.24;101537.44;5088093;28;20032;-79
2023/06/11 11:12:49;;;;;;;8.95;5.85;;;;;;;30.41;37.63;101537.53;5078853;28;20047;-78
2023/06/11 11:15:15;;;;;;;6.00;5.38;;;;;;;31.11;34.48;101541.66;5070759;28;20128;-79
2023/06/11 11:17:42;;;;;;;6.95;6.25;;;;;;;31.10;35.97;101540.06;5080465;28;20035;-78
2023/06/11 11:20:08;;;;;;;6.70;6.10;;;;;;;31.27;37.82;101522.91;5066402;28;20019;-78